| time (UTC) | temp F | wind direction | speed MPH | gust MPH | rain 1hr in | rain 24hr in | rain mn in | humidity % | barometer mb |
| 20260509223500 | 78 | 238 | 2.0 | 2.0 | 0.00 | 0.00 | 0.00 | 62 | 4247.0 |
| 20260509222458 | 79 | 234 | 1.0 | 2.0 | 0.00 | 0.00 | 0.00 | 63 | 4246.7 |
| 20260509221456 | 79 | 313 | 0.0 | 1.0 | 0.00 | 0.00 | 0.00 | 64 | 4246.8 |
| 20260509220455 | 79 | 228 | 4.0 | 5.0 | 0.00 | 0.00 | 0.00 | 60 | 4247.0 |
| 20260509215452 | 79 | 281 | 1.0 | 1.0 | 0.00 | 0.00 | 0.00 | 61 | 4246.7 |
| 20260509214447 | 79 | 259 | 1.0 | 1.0 | 0.00 | 0.00 | 0.00 | 62 | 4246.8 |
| 20260509213445 | 79 | 256 | 1.0 | 2.0 | 0.00 | 0.00 | 0.00 | 59 | 4246.7 |
| 20260509212445 | 79 | 17 | 1.0 | 1.0 | 0.00 | 0.00 | 0.00 | 62 | 4246.8 |
| 20260509211442 | 80 | 240 | 1.0 | 1.0 | 0.00 | 0.00 | 0.00 | 63 | 4246.7 |
| 20260509210442 | 80 | 336 | 1.0 | 1.0 | 0.00 | 0.00 | 0.00 | 62 | 4247.0 |
| 20260509205439 | 79 | 256 | 2.0 | 2.0 | 0.00 | 0.00 | 0.00 | 60 | 4246.8 |
| 20260509204437 | 80 | 299 | 3.0 | 5.0 | 0.00 | 0.00 | 0.00 | 60 | 4247.0 |
| 20260509203435 | 79 | 243 | 3.0 | 3.0 | 0.00 | 0.00 | 0.00 | 57 | 4247.0 |
| 20260509202435 | 80 | 297 | 1.0 | 1.0 | 0.00 | 0.00 | 0.00 | 59 | 4247.1 |
| 20260509201431 | 79 | 315 | 2.0 | 2.0 | 0.00 | 0.00 | 0.00 | 60 | 4247.1 |
| 20260509200428 | 80 | 290 | 1.0 | 1.0 | 0.00 | 0.00 | 0.00 | 60 | 4247.2 |
| 20260509195427 | 79 | 6 | 1.0 | 1.0 | 0.00 | 0.00 | 0.00 | 64 | 4247.2 |
| 20260509194422 | 77 | 359 | 1.0 | 1.0 | 0.00 | 0.00 | 0.00 | 67 | 4247.3 |
| 20260509193419 | 80 | 69 | 2.0 | 3.0 | 0.00 | 0.00 | 0.00 | 60 | 4247.3 |
| 20260509192417 | 77 | 4 | 4.0 | 5.0 | 0.00 | 0.00 | 0.00 | 62 | 4247.1 |
| 20260509191414 | 78 | 44 | 1.0 | 1.0 | 0.00 | 0.00 | 0.00 | 69 | 4247.2 |
| 20260509190413 | 78 | 341 | 1.0 | 1.0 | 0.00 | 0.00 | 0.00 | 68 | 4247.5 |
| 20260509185408 | 77 | 10 | 1.0 | 2.0 | 0.00 | 0.00 | 0.00 | 66 | 4247.7 |
| 20260509184407 | 77 | 336 | 3.0 | 3.0 | 0.00 | 0.00 | 0.00 | 65 | 4247.6 |
| 20260509183405 | 78 | 29 | 1.0 | 1.0 | 0.00 | 0.00 | 0.00 | 65 | 4247.8 |
| 20260509182404 | 78 | 356 | 3.0 | 3.0 | 0.00 | 0.00 | 0.00 | 65 | 4247.8 |
| 20260509181359 | 79 | 280 | 1.0 | 1.0 | 0.00 | 0.00 | 0.00 | 64 | 4247.8 |
| 20260509180357 | 78 | 62 | 2.0 | 2.0 | 0.00 | 0.00 | 0.00 | 68 | 4247.9 |
| 20260509175357 | 77 | 308 | 2.0 | 2.0 | 0.00 | 0.00 | 0.00 | 69 | 4248.2 |
| 20260509174355 | 77 | 160 | 3.0 | 3.0 | 0.00 | 0.00 | 0.00 | 71 | 4247.9 |
| 20260509173351 | 77 | 229 | 3.0 | 3.0 | 0.00 | 0.00 | 0.00 | 70 | 4248.0 |
| 20260509172351 | 75 | 355 | 4.0 | 5.0 | 0.00 | 0.00 | 0.00 | 73 | 4247.9 |
| 20260509171348 | 77 | 274 | 1.0 | 2.0 | 0.00 | 0.00 | 0.00 | 70 | 4247.8 |
| 20260509170347 | 75 | 9 | 1.0 | 1.0 | 0.00 | 0.00 | 0.00 | 74 | 4247.9 |
| 20260509165342 | 76 | 2 | 2.0 | 2.0 | 0.00 | 0.00 | 0.00 | 76 | 4247.9 |
| 20260509164340 | 77 | 263 | 4.0 | 5.0 | 0.00 | 0.00 | 0.00 | 71 | 4248.2 |
| 20260509163339 | 75 | 295 | 1.0 | 1.0 | 0.00 | 0.00 | 0.00 | 72 | 4248.4 |
| 20260509162337 | 75 | 347 | 4.0 | 5.0 | 0.00 | 0.00 | 0.00 | 76 | 4248.3 |
| 20260509161336 | 75 | 41 | 1.0 | 1.0 | 0.00 | 0.00 | 0.00 | 76 | 4248.3 |
| 20260509160334 | 73 | 16 | 4.0 | 6.0 | 0.00 | 0.00 | 0.00 | 79 | 4248.2 |
| 20260509155331 | 73 | 240 | 1.0 | 2.0 | 0.00 | 0.00 | 0.00 | 78 | 4248.3 |
| 20260509154330 | 73 | 321 | 1.0 | 1.0 | 0.00 | 0.00 | 0.00 | 78 | 4248.2 |
| 20260509153330 | 73 | 343 | 1.0 | 1.0 | 0.00 | 0.00 | 0.00 | 81 | 4248.0 |
| 20260509152328 | 72 | 234 | 1.0 | 2.0 | 0.00 | 0.00 | 0.00 | 81 | 4247.9 |
| 20260509151328 | 70 | 153 | 0.0 | 0.0 | 0.00 | 0.00 | 0.00 | 85 | 4247.9 |
| 20260509150324 | 69 | 253 | 4.0 | 5.0 | 0.00 | 0.00 | 0.00 | 85 | 4247.8 |
| 20260509145321 | 68 | 236 | 3.0 | 3.0 | 0.00 | 0.00 | 0.00 | 87 | 4248.0 |
| 20260509144320 | 66 | 312 | 1.0 | 1.0 | 0.00 | 0.00 | 0.00 | 91 | 4248.0 |
| 20260509143315 | 67 | 265 | 1.0 | 1.0 | 0.00 | 0.00 | 0.00 | 91 | 4248.3 |
| 20260509142313 | 66 | 243 | 6.0 | 7.0 | 0.00 | 0.00 | 0.00 | 90 | 4248.1 |
| 20260509141312 | 65 | 15 | 1.0 | 1.0 | 0.00 | 0.00 | 0.00 | 94 | 4248.1 |
| 20260509140311 | 64 | 34 | 1.0 | 2.0 | 0.00 | 0.00 | 0.00 | 94 | 4248.2 |
| 20260509135306 | 63 | 294 | 1.0 | 1.0 | 0.00 | 0.00 | 0.00 | 96 | 4248.1 |
| 20260509134306 | 62 | 267 | 1.0 | 1.0 | 0.00 | 0.00 | 0.00 | 97 | 4247.9 |
| 20260509133305 | 62 | 287 | 1.0 | 1.0 | 0.00 | 0.00 | 0.00 | 98 | 4247.8 |
| 20260509132306 | 62 | 268 | 2.0 | 2.0 | 0.00 | 0.00 | 0.00 | 98 | 4247.9 |
| 20260509131301 | 62 | 257 | 2.0 | 2.0 | 0.00 | 0.00 | 0.00 | 99 | 4248.0 |
| 20260509130259 | 62 | 244 | 1.0 | 2.0 | 0.00 | 0.00 | 0.00 | 99 | 4247.5 |
| 20260509125258 | 61 | 22 | 0.0 | 1.0 | 0.00 | 0.00 | 0.00 | 99 | 4247.7 |
| 20260509124257 | 61 | 46 | 1.0 | 1.0 | 0.00 | 0.00 | 0.00 | 99 | 4247.6 |
| 20260509123252 | 60 | 4 | 0.0 | 1.0 | 0.00 | 0.00 | 0.00 | 99 | 4247.8 |
| 20260509122251 | 60 | 236 | 1.0 | 1.0 | 0.00 | 0.00 | 0.00 | 99 | 4247.8 |
| 20260509121250 | 59 | 250 | 2.0 | 2.0 | 0.00 | 0.00 | 0.00 | 99 | 4247.9 |
| 20260509120246 | 59 | 266 | 0.0 | 1.0 | 0.00 | 0.00 | 0.00 | 99 | 4247.8 |
| 20260509115246 | 58 | 300 | 0.0 | 1.0 | 0.00 | 0.00 | 0.00 | 99 | 4247.8 |
| 20260509114243 | 58 | 257 | 1.0 | 1.0 | 0.00 | 0.00 | 0.00 | 99 | 4247.6 |
| 20260509113238 | 58 | 300 | 0.0 | 0.0 | 0.00 | 0.00 | 0.00 | 99 | 4247.7 |
| 20260509112238 | 57 | 284 | 0.0 | 1.0 | 0.00 | 0.00 | 0.00 | 99 | 4247.5 |
| 20260509111238 | 57 | 312 | 0.0 | 0.0 | 0.00 | 0.00 | 0.00 | 99 | 4247.4 |
| 20260509110237 | 56 | 301 | 0.0 | 0.0 | 0.00 | 0.00 | 0.00 | 99 | 4247.2 |
| 20260509105233 | 55 | 310 | 0.0 | 0.0 | 0.00 | 0.00 | 0.00 | 99 | 4246.9 |
| 20260509104232 | 55 | 264 | 1.0 | 1.0 | 0.00 | 0.00 | 0.00 | 99 | 4246.8 |
| 20260509103227 | 56 | 256 | 0.0 | 1.0 | 0.00 | 0.00 | 0.00 | 99 | 4246.5 |
| 20260509102222 | 56 | 256 | 0.0 | 0.0 | 0.00 | 0.00 | 0.00 | 99 | 4246.6 |
| 20260509101221 | 56 | 257 | 0.0 | 1.0 | 0.00 | 0.00 | 0.00 | 99 | 4246.7 |
| 20260509100221 | 56 | 260 | 0.0 | 0.0 | 0.00 | 0.00 | 0.00 | 99 | 4246.5 |
| 20260509095221 | 56 | 257 | 1.0 | 1.0 | 0.00 | 0.00 | 0.00 | 99 | 4246.8 |
| 20260509094221 | 56 | 254 | 0.0 | 0.0 | 0.00 | 0.00 | 0.00 | 99 | 4246.6 |
| 20260509093216 | 56 | 260 | 0.0 | 0.0 | 0.00 | 0.00 | 0.00 | 99 | 4246.5 |
| 20260509092212 | 56 | 250 | 1.0 | 1.0 | 0.00 | 0.00 | 0.00 | 99 | 4246.4 |
| 20260509091211 | 56 | 276 | 0.0 | 0.0 | 0.00 | 0.00 | 0.00 | 99 | 4246.6 |
| 20260509090206 | 56 | 276 | 0.0 | 1.0 | 0.00 | 0.00 | 0.00 | 99 | 4246.8 |
| 20260509085206 | 56 | 277 | 0.0 | 0.0 | 0.00 | 0.00 | 0.00 | 99 | 4246.9 |
| 20260509084206 | 57 | 274 | 0.0 | 1.0 | 0.00 | 0.00 | 0.00 | 98 | 4247.1 |
| 20260509083206 | 57 | 266 | 0.0 | 1.0 | 0.00 | 0.00 | 0.00 | 98 | 4247.2 |
| 20260509082205 | 57 | 245 | 2.0 | 2.0 | 0.00 | 0.00 | 0.00 | 99 | 4247.2 |
| 20260509081206 | 57 | 280 | 0.0 | 0.0 | 0.00 | 0.00 | 0.00 | 99 | 4246.8 |
| 20260509080201 | 57 | 290 | 0.0 | 0.0 | 0.00 | 0.00 | 0.00 | 99 | 4246.6 |
| 20260509075156 | 56 | 290 | 0.0 | 0.0 | 0.00 | 0.00 | 0.00 | 99 | 4246.6 |
| 20260509074156 | 56 | 284 | 0.0 | 0.0 | 0.00 | 0.00 | 0.00 | 99 | 4247.0 |
| 20260509073155 | 55 | 255 | 0.0 | 0.0 | 0.00 | 0.00 | 0.00 | 99 | 4247.2 |
| 20260509072154 | 55 | 288 | 0.0 | 1.0 | 0.00 | 0.00 | 0.00 | 98 | 4247.0 |
| 20260509071154 | 56 | 269 | 0.0 | 0.0 | 0.00 | 0.00 | 0.00 | 98 | 4247.5 |
| 20260509070153 | 56 | 285 | 0.0 | 0.0 | 0.00 | 0.00 | 0.00 | 98 | 4247.3 |
| 20260509065152 | 56 | 258 | 0.0 | 0.0 | 0.00 | 0.00 | 0.00 | 98 | 4247.2 |
| 20260509064152 | 55 | 270 | 0.0 | 0.0 | 0.00 | 0.00 | 0.00 | 98 | 4247.5 |
| 20260509063151 | 55 | 256 | 0.0 | 1.0 | 0.00 | 0.00 | 0.00 | 98 | 4247.7 |
| 20260509062152 | 55 | 327 | 0.0 | 0.0 | 0.00 | 0.00 | 0.00 | 98 | 4247.4 |
| 20260509061146 | 55 | 288 | 0.0 | 0.0 | 0.00 | 0.00 | 0.00 | 98 | 4247.8 |
| 20260509060145 | 55 | 295 | 1.0 | 1.0 | 0.00 | 0.00 | 0.00 | 98 | 4247.7 |
| 20260509055143 | 55 | 241 | 1.0 | 1.0 | 0.00 | 0.00 | 0.00 | 98 | 4247.9 |
| 20260509054143 | 55 | 227 | 1.0 | 1.0 | 0.00 | 0.00 | 0.00 | 97 | 4248.1 |
| 20260509053138 | 55 | 247 | 1.0 | 1.0 | 0.00 | 0.00 | 0.00 | 97 | 4247.8 |
| 20260509052133 | 56 | 234 | 0.0 | 1.0 | 0.00 | 0.00 | 0.00 | 97 | 4247.8 |
| 20260509051128 | 55 | 220 | 1.0 | 1.0 | 0.00 | 0.00 | 0.00 | 97 | 4248.1 |
| 20260509050127 | 55 | 220 | 1.0 | 1.0 | 0.00 | 0.00 | 0.00 | 97 | 4247.7 |
| 20260509045127 | 55 | 241 | 0.0 | 1.0 | 0.00 | 0.00 | 0.00 | 97 | 4248.1 |
| 20260509044122 | 55 | 236 | 1.0 | 1.0 | 0.00 | 0.00 | 0.00 | 97 | 4247.9 |
| 20260509043119 | 56 | 229 | 1.0 | 1.0 | 0.00 | 0.00 | 0.00 | 96 | 4247.9 |
| 20260509042117 | 56 | 264 | 1.0 | 1.0 | 0.00 | 0.00 | 0.00 | 95 | 4248.1 |
| 20260509041112 | 57 | 247 | 1.0 | 1.0 | 0.00 | 0.00 | 0.00 | 94 | 4248.3 |
| 20260509040107 | 57 | 229 | 1.0 | 1.0 | 0.00 | 0.00 | 0.00 | 94 | 4248.6 |
| 20260509035106 | 57 | 239 | 1.0 | 2.0 | 0.00 | 0.00 | 0.00 | 93 | 4248.6 |
| 20260509034106 | 58 | 228 | 1.0 | 1.0 | 0.00 | 0.00 | 0.00 | 93 | 4248.4 |
| 20260509033106 | 58 | 237 | 1.0 | 1.0 | 0.00 | 0.00 | 0.00 | 92 | 4248.4 |
| 20260509032106 | 58 | 240 | 1.0 | 1.0 | 0.00 | 0.00 | 0.00 | 91 | 4248.6 |
| 20260509031101 | 58 | 240 | 0.0 | 1.0 | 0.00 | 0.00 | 0.00 | 91 | 4248.6 |
| 20260509030056 | 58 | 262 | 0.0 | 1.0 | 0.00 | 0.00 | 0.00 | 91 | 4248.6 |
| 20260509025053 | 58 | 303 | 0.0 | 0.0 | 0.00 | 0.00 | 0.00 | 90 | 4248.7 |
| 20260509024051 | 59 | 300 | 0.0 | 0.0 | 0.00 | 0.00 | 0.00 | 89 | 4248.8 |
| 20260509023046 | 59 | 294 | 0.0 | 1.0 | 0.00 | 0.00 | 0.00 | 88 | 4248.8 |
| 20260509022047 | 60 | 339 | 0.0 | 0.0 | 0.00 | 0.00 | 0.00 | 87 | 4248.4 |
| 20260509021046 | 60 | 339 | 0.0 | 0.0 | 0.00 | 0.00 | 0.00 | 85 | 4248.8 |
| 20260509020047 | 61 | 347 | 0.0 | 0.0 | 0.00 | 0.00 | 0.00 | 84 | 4248.5 |
| 20260509015043 | 61 | 297 | 0.0 | 0.0 | 0.00 | 0.00 | 0.00 | 83 | 4248.5 |
| 20260509014041 | 62 | 297 | 0.0 | 0.0 | 0.00 | 0.00 | 0.00 | 82 | 4248.3 |
| 20260509013040 | 62 | 294 | 0.0 | 0.0 | 0.00 | 0.00 | 0.00 | 80 | 4248.2 |
| 20260509012039 | 63 | 3 | 1.0 | 1.0 | 0.00 | 0.00 | 0.00 | 79 | 4248.4 |
| 20260509011034 | 63 | 129 | 0.0 | 0.0 | 0.00 | 0.00 | 0.00 | 78 | 4248.2 |
| 20260509010034 | 64 | 295 | 0.0 | 0.0 | 0.00 | 0.00 | 0.00 | 76 | 4248.2 |
| 20260509005032 | 65 | 246 | 0.0 | 1.0 | 0.00 | 0.00 | 0.00 | 74 | 4248.3 |
| 20260509004032 | 66 | 287 | 0.0 | 0.0 | 0.00 | 0.00 | 0.00 | 72 | 4248.2 |
| 20260509003027 | 66 | 245 | 1.0 | 2.0 | 0.00 | 0.00 | 0.00 | 71 | 4248.2 |
| 20260509002027 | 67 | 290 | 0.0 | 1.0 | 0.00 | 0.00 | 0.00 | 70 | 4248.2 |
| 20260509001026 | 68 | 279 | 0.0 | 0.0 | 0.00 | 0.00 | 0.00 | 69 | 4248.2 |
| 20260509000026 | 69 | 264 | 0.0 | 1.0 | 0.00 | 0.00 | 0.00 | 67 | 4248.1 |
| 20260508235026 | 69 | 240 | 1.0 | 2.0 | 0.00 | 0.00 | 0.00 | 66 | 4248.2 |
| 20260508234026 | 70 | 245 | 2.0 | 2.0 | 0.00 | 0.00 | 0.00 | 64 | 4248.1 |
| 20260508233023 | 70 | 271 | 1.0 | 1.0 | 0.00 | 0.00 | 0.00 | 64 | 4248.3 |
| 20260508232022 | 70 | 263 | 1.0 | 1.0 | 0.00 | 0.00 | 0.00 | 62 | 4248.2 |
| 20260508231017 | 70 | 355 | 0.0 | 1.0 | 0.00 | 0.00 | 0.00 | 62 | 4248.4 |
| 20260508230016 | 70 | 278 | 0.0 | 1.0 | 0.00 | 0.00 | 0.00 | 61 | 4248.4 |
| 20260508225016 | 71 | 355 | 0.0 | 1.0 | 0.00 | 0.00 | 0.00 | 60 | 4248.6 |
| 20260508224016 | 71 | 241 | 2.0 | 2.0 | 0.00 | 0.00 | 0.00 | 59 | 4248.4 |